Briefing drone pour Livron-sur-drome

Rechercher une autre localisation

Conditions de vol :


Nous sommes le : Mercredi 27 janvier 2021
Il est 20:49 UTC (21:49 LT)

Lever de soleil : 06:38 UTC (07:38 LT)
Coucher de soleil : 17:08 UTC (18:08 LT)

Météo

L'essentiel des conditions de vol

VIGILANCE MÉTÉO FRANCE - Drôme (26)
Pas de vigilances particulieres
METAR de LFLU
LFLU 271800Z AUTO 01004KT 340V050 CAVOK 05/02 Q1018

Date d'émission: 27/01/2021
Heure d'émission: 18:00 UTC
Vent: 010° (variable du 340° au 050°) pour 4 KT (7 km/h)
Visibilité horizontale: > 10 km
Plafond : Plafond et visibilité OK (CAVOK)
Température: 5 °C
Point de rosée: 2 °C
Humidité: 81%
Pression (QNH): 1018 hPa
Prévision 24h pour Valence (12 km)
Vent : 157° pour 3 KT (12 km/h)
Temperature Maxi: 11 °C
Temperature Min: 11 °C
Humidité : 82%
Condition : Légère pluie



Warning: count(): Parameter must be an array or an object that implements Countable in /homepages/6/d509196549/htdocs/droneoxygene/briefing.php on line 743
WEBCAM POUR LIVRON-SUR-DROME

Réglementation

Voler en sécurité

CARTES AERONAUTIQUE 1/500.000
CARTES VAC (LFLU)
SUP AIP




Chargement des AIP...
NOTAM (LIVRON-SUR-DROME + Terrain à proximité / FIR )




Chargement des NOTAMS...
CONTACT PREFECTURE 26
Drôme (26) : ddt-sdsr@drome.gouv.fr


Avertissement : Les données mises à disposition sont indicatives. Oxygène Drone ne pourra être tenu responsable de dégâts causés aux biens et aux personnes.